Time,TemperatureF,DewpointF,PressureIn,WindDirection,WindDirectionDegrees,WindSpeedMPH,WindSpeedGustMPH,Humidity,HourlyPrecipIn,Conditions,Clouds,dailyrainin,SoftwareType,DateUTC
2013-09-20 00:13:00,81.0,71.0,29.99,ENE,57,0.0,8.0,72,0.00,,,0.00,weatherlink.com 1.10,2013-09-20 04:13:00,
2013-09-20 00:28:00,81.1,70.0,29.99,ENE,75,0.0,10.0,70,0.00,,,0.00,weatherlink.com 1.10,2013-09-20 04:28:00,
2013-09-20 00:43:00,81.0,70.0,29.99,ENE,73,5.0,7.0,70,0.00,,,0.00,weatherlink.com 1.10,2013-09-20 04:43:00,
2013-09-20 00:58:00,81.1,71.0,29.98,ENE,60,0.0,9.0,71,0.00,,,0.00,weatherlink.com 1.10,2013-09-20 04:58:00,
2013-09-20 01:13:00,81.3,71.0,29.98,ENE,65,5.0,10.0,72,0.00,,,0.00,weatherlink.com 1.10,2013-09-20 05:13:00,
2013-09-20 01:28:00,81.1,71.0,29.98,East,79,6.0,11.0,71,0.00,,,0.00,weatherlink.com 1.10,2013-09-20 05:28:00,
2013-09-20 01:43:00,81.0,71.0,29.98,East,83,6.0,14.0,71,0.00,,,0.00,weatherlink.com 1.10,2013-09-20 05:43:00,
2013-09-20 01:58:00,81.0,70.0,29.97,East,85,7.0,8.0,70,0.00,,,0.00,weatherlink.com 1.10,2013-09-20 05:58:00,
2013-09-20 02:13:00,81.0,70.0,29.97,ENE,65,5.0,8.0,70,0.00,,,0.00,weatherlink.com 1.10,2013-09-20 06:13:00,
2013-09-20 02:28:00,81.0,69.0,29.97,NE,55,4.0,8.0,68,0.00,,,0.00,weatherlink.com 1.10,2013-09-20 06:28:00,
2013-09-20 02:43:00,80.8,70.0,29.96,ENE,66,0.0,7.0,69,0.00,,,0.00,weatherlink.com 1.10,2013-09-20 06:43:00,
2013-09-20 02:58:00,80.8,70.0,29.96,ENE,69,0.0,7.0,70,0.00,,,0.00,weatherlink.com 1.10,2013-09-20 06:58:00,
2013-09-20 03:13:00,80.8,71.0,29.95,ENE,71,0.0,10.0,71,0.00,,,0.00,weatherlink.com 1.10,2013-09-20 07:13:00,
2013-09-20 03:28:00,80.8,70.0,29.95,NE,35,0.0,4.0,69,0.00,,,0.00,weatherlink.com 1.10,2013-09-20 07:28:00,
2013-09-20 03:43:00,80.8,70.0,29.95,ENE,60,7.0,10.0,70,0.00,,,0.00,weatherlink.com 1.10,2013-09-20 07:43:00,
2013-09-20 03:58:00,80.6,70.0,29.94,ENE,57,4.0,8.0,71,0.00,,,0.00,weatherlink.com 1.10,2013-09-20 07:58:00,
2013-09-20 04:14:00,80.6,70.0,29.95,ENE,71,0.0,6.0,71,0.00,,,0.00,weatherlink.com 1.10,2013-09-20 08:14:00,
2013-09-20 04:29:00,80.6,70.0,29.95,ENE,76,5.0,10.0,70,0.00,,,0.00,weatherlink.com 1.10,2013-09-20 08:29:00,
2013-09-20 04:44:00,80.4,70.0,29.96,East,79,1.0,8.0,70,0.00,,,0.00,weatherlink.com 1.10,2013-09-20 08:44:00,
2013-09-20 04:59:00,80.2,70.0,29.96,ENE,75,0.0,3.0,71,0.00,,,0.00,weatherlink.com 1.10,2013-09-20 08:59:00,
2013-09-20 05:14:00,80.2,70.0,29.96,NNE,16,4.0,8.0,70,0.00,,,0.00,weatherlink.com 1.10,2013-09-20 09:14:00,
2013-09-20 05:29:00,80.0,69.0,29.96,NNE,32,2.0,6.0,69,0.00,,,0.00,weatherlink.com 1.10,2013-09-20 09:29:00,
2013-09-20 05:44:00,80.0,69.0,29.97,NNE,31,0.0,5.0,69,0.00,,,0.00,weatherlink.com 1.10,2013-09-20 09:44:00,
2013-09-20 05:59:00,79.7,69.0,29.97,NNE,29,3.0,6.0,69,0.00,,,0.00,weatherlink.com 1.10,2013-09-20 09:59:00,
2013-09-20 06:14:00,79.3,69.0,29.97,NNE,29,0.0,4.0,70,0.00,,,0.00,weatherlink.com 1.10,2013-09-20 10:14:00,
2013-09-20 06:29:00,78.9,69.0,29.96,NNE,27,0.0,0.0,72,0.00,,,0.00,weatherlink.com 1.10,2013-09-20 10:29:00,
2013-09-20 06:44:00,78.2,69.0,29.96,NNE,24,2.0,6.0,73,0.00,,,0.00,weatherlink.com 1.10,2013-09-20 10:44:00,
2013-09-20 06:59:00,77.6,69.0,29.96,NNE,24,0.0,3.0,75,0.00,,,0.00,weatherlink.com 1.10,2013-09-20 10:59:00,
2013-09-20 07:14:00,77.6,69.0,29.96,NNE,24,0.0,0.0,75,0.00,,,0.00,weatherlink.com 1.10,2013-09-20 11:14:00,
2013-09-20 07:29:00,77.3,69.0,29.96,NNE,24,4.0,4.0,76,0.00,,,0.00,weatherlink.com 1.10,2013-09-20 11:29:00,
2013-09-20 07:44:00,77.3,70.0,29.96,NNE,24,3.0,5.0,78,0.00,,,0.00,weatherlink.com 1.10,2013-09-20 11:44:00,
2013-09-20 07:59:00,78.4,70.0,29.96,NNE,24,0.0,4.0,74,0.00,,,0.00,weatherlink.com 1.10,2013-09-20 11:59:00,
2013-09-20 08:14:00,80.0,69.0,29.96,NNE,22,0.0,7.0,69,0.00,,,0.00,weatherlink.com 1.10,2013-09-20 12:14:00,
2013-09-20 08:29:00,81.1,69.0,29.96,NE,49,0.0,11.0,66,0.00,,,0.00,weatherlink.com 1.10,2013-09-20 12:29:00,
2013-09-20 08:44:00,81.7,68.0,29.96,NNE,14,11.0,12.0,64,0.00,,,0.00,weatherlink.com 1.10,2013-09-20 12:44:00,
2013-09-20 08:59:00,81.9,69.0,29.97,North,8,5.0,11.0,65,0.00,,,0.00,weatherlink.com 1.10,2013-09-20 12:59:00,
2013-09-20 09:14:00,82.5,69.0,29.98,NNE,25,9.0,13.0,63,0.00,,,0.00,weatherlink.com 1.10,2013-09-20 13:14:00,
2013-09-20 09:29:00,82.5,68.0,29.98,North,359,5.0,13.0,62,0.00,,,0.00,weatherlink.com 1.10,2013-09-20 13:29:00,
2013-09-20 09:44:00,82.9,68.0,29.98,NNE,20,5.0,12.0,61,0.00,,,0.00,weatherlink.com 1.10,2013-09-20 13:44:00,
2013-09-20 09:59:00,82.9,68.0,29.98,NNE,13,7.0,17.0,62,0.00,,,0.00,weatherlink.com 1.10,2013-09-20 13:59:00,
2013-09-20 10:14:00,82.9,68.0,29.99,NE,42,0.0,14.0,62,0.00,,,0.00,weatherlink.com 1.10,2013-09-20 14:14:00,
2013-09-20 10:29:00,83.3,69.0,29.99,ENE,74,7.0,15.0,62,0.00,,,0.00,weatherlink.com 1.10,2013-09-20 14:29:00,
2013-09-20 10:44:00,83.1,70.0,29.99,NNE,15,10.0,16.0,64,0.00,,,0.00,weatherlink.com 1.10,2013-09-20 14:44:00,
2013-09-20 10:59:00,83.5,69.0,29.99,North,2,0.0,14.0,62,0.00,,,0.00,weatherlink.com 1.10,2013-09-20 14:59:00,
2013-09-20 11:14:00,83.9,68.0,29.99,East,86,1.0,10.0,60,0.00,,,0.00,weatherlink.com 1.10,2013-09-20 15:14:00,
2013-09-20 11:29:00,84.0,70.0,29.99,North,9,0.0,11.0,62,0.00,,,0.00,weatherlink.com 1.10,2013-09-20 15:29:00,
2013-09-20 11:44:00,84.0,70.0,29.99,ENE,61,0.0,16.0,62,0.00,,,0.00,weatherlink.com 1.10,2013-09-20 15:44:00,
2013-09-20 11:59:00,84.8,70.0,29.99,NE,52,8.0,14.0,61,0.00,,,0.00,weatherlink.com 1.10,2013-09-20 15:59:00,
2013-09-20 12:14:00,83.7,70.0,29.99,NNE,17,4.0,21.0,64,0.00,,,0.00,weatherlink.com 1.10,2013-09-20 16:14:00,
2013-09-20 12:29:00,82.9,70.0,29.99,ENE,64,0.0,11.0,66,0.00,,,0.00,weatherlink.com 1.10,2013-09-20 16:29:00,
2013-09-20 12:44:00,83.1,70.0,29.99,ENE,73,0.0,8.0,64,0.00,,,0.00,weatherlink.com 1.10,2013-09-20 16:44:00,
2013-09-20 12:59:00,83.3,69.0,29.98,NNE,29,2.0,22.0,63,0.00,,,0.00,weatherlink.com 1.10,2013-09-20 16:59:00,
2013-09-20 13:14:00,84.0,69.0,29.98,NNW,344,0.0,18.0,60,0.00,,,0.00,weatherlink.com 1.10,2013-09-20 17:14:00,
2013-09-20 13:29:00,84.2,68.0,29.98,North,354,0.0,13.0,59,0.00,,,0.00,weatherlink.com 1.10,2013-09-20 17:29:00,
2013-09-20 13:44:00,84.4,68.0,29.96,NNE,16,4.0,18.0,59,0.00,,,0.00,weatherlink.com 1.10,2013-09-20 17:44:00,
2013-09-20 13:59:00,83.9,68.0,29.95,NE,40,8.0,20.0,59,0.00,,,0.00,weatherlink.com 1.10,2013-09-20 17:59:00,
2013-09-20 14:14:00,84.6,68.0,29.95,East,80,14.0,14.0,58,0.00,,,0.00,weatherlink.com 1.10,2013-09-20 18:14:00,
2013-09-20 14:29:00,84.2,68.0,29.94,NNE,16,0.0,19.0,58,0.00,,,0.00,weatherlink.com 1.10,2013-09-20 18:29:00,
2013-09-20 14:44:00,83.9,68.0,29.93,East,81,0.0,16.0,60,0.00,,,0.00,weatherlink.com 1.10,2013-09-20 18:44:00,
2013-09-20 14:59:00,83.7,67.0,29.93,East,100,2.0,19.0,57,0.00,,,0.00,weatherlink.com 1.10,2013-09-20 18:59:00,
2013-09-20 15:14:00,83.9,68.0,29.93,NNE,23,0.0,17.0,59,0.00,,,0.00,weatherlink.com 1.10,2013-09-20 19:14:00,
2013-09-20 15:29:00,83.7,68.0,29.93,ENE,75,9.0,18.0,59,0.00,,,0.00,weatherlink.com 1.10,2013-09-20 19:29:00,
2013-09-20 15:44:00,83.7,67.0,29.92,ENE,71,1.0,13.0,58,0.00,,,0.00,weatherlink.com 1.10,2013-09-20 19:44:00,
2013-09-20 15:59:00,83.7,68.0,29.92,NE,35,6.0,18.0,59,0.00,,,0.00,weatherlink.com 1.10,2013-09-20 19:59:00,
2013-09-20 16:14:00,83.5,68.0,29.92,North,11,0.0,10.0,60,0.00,,,0.00,weatherlink.com 1.10,2013-09-20 20:14:00,
2013-09-20 16:29:00,83.3,68.0,29.91,ENE,77,0.0,11.0,60,0.00,,,0.00,weatherlink.com 1.10,2013-09-20 20:29:00,
2013-09-20 16:44:00,83.1,68.0,29.91,North,6,8.0,12.0,61,0.00,,,0.00,weatherlink.com 1.10,2013-09-20 20:44:00,
2013-09-20 16:59:00,83.5,69.0,29.91,North,11,2.0,11.0,62,0.00,,,0.00,weatherlink.com 1.10,2013-09-20 20:59:00,
2013-09-20 17:14:00,83.3,69.0,29.91,NNE,23,3.0,13.0,62,0.00,,,0.00,weatherlink.com 1.10,2013-09-20 21:14:00,
2013-09-20 17:29:00,83.3,69.0,29.90,NE,42,1.0,10.0,62,0.00,,,0.00,weatherlink.com 1.10,2013-09-20 21:29:00,
2013-09-20 17:44:00,83.1,68.0,29.90,NE,46,5.0,16.0,60,0.00,,,0.00,weatherlink.com 1.10,2013-09-20 21:44:00,
2013-09-20 17:59:00,82.9,68.0,29.90,NNE,18,9.0,13.0,62,0.00,,,0.00,weatherlink.com 1.10,2013-09-20 21:59:00,
2013-09-20 18:14:00,82.9,69.0,29.90,NNE,22,0.0,10.0,63,0.00,,,0.00,weatherlink.com 1.10,2013-09-20 22:14:00,
2013-09-20 18:29:00,82.7,69.0,29.90,NE,52,0.0,9.0,64,0.00,,,0.00,weatherlink.com 1.10,2013-09-20 22:29:00,
2013-09-20 18:44:00,82.5,70.0,29.90,NE,42,0.0,8.0,65,0.00,,,0.00,weatherlink.com 1.10,2013-09-20 22:44:00,
2013-09-20 18:59:00,82.3,70.0,29.90,North,359,6.0,10.0,66,0.00,,,0.00,weatherlink.com 1.10,2013-09-20 22:59:00,
2013-09-20 19:14:00,82.1,71.0,29.90,NNE,18,6.0,11.0,68,0.00,,,0.00,weatherlink.com 1.10,2013-09-20 23:14:00,
2013-09-20 19:29:00,81.9,72.0,29.89,NE,46,2.0,9.0,71,0.00,,,0.00,weatherlink.com 1.10,2013-09-20 23:29:00,
2013-09-20 19:44:00,80.0,73.0,29.90,ENE,71,5.0,15.0,80,0.01,,,0.01,weatherlink.com 1.10,2013-09-20 23:44:00,
2013-09-20 19:59:00,78.9,74.0,29.90,ENE,77,0.0,0.0,84,0.01,,,0.01,weatherlink.com 1.10,2013-09-20 23:59:00,
2013-09-20 20:14:00,79.1,74.0,29.90,North,4,5.0,8.0,83,0.01,,,0.01,weatherlink.com 1.10,2013-09-21 00:14:00,
2013-09-20 20:29:00,78.5,73.0,29.91,East,88,0.0,13.0,83,0.01,,,0.01,weatherlink.com 1.10,2013-09-21 00:29:00,
2013-09-20 20:44:00,78.4,73.0,29.91,ENE,65,0.0,9.0,83,0.00,,,0.01,weatherlink.com 1.10,2013-09-21 00:44:00,
2013-09-20 20:59:00,78.5,73.0,29.91,North,8,7.0,8.0,84,0.00,,,0.01,weatherlink.com 1.10,2013-09-21 00:59:00,
2013-09-20 21:14:00,77.5,74.0,29.92,North,358,0.0,0.0,88,0.02,,,0.03,weatherlink.com 1.10,2013-09-21 01:14:00,
2013-09-20 21:29:00,76.9,74.0,29.92,North,354,0.0,0.0,91,0.02,,,0.03,weatherlink.com 1.10,2013-09-21 01:29:00,
2013-09-20 21:44:00,76.9,74.0,29.92,North,6,3.0,8.0,91,0.02,,,0.03,weatherlink.com 1.10,2013-09-21 01:44:00,
2013-09-20 22:00:00,76.7,74.0,29.93,NNE,21,0.0,1.0,91,0.02,,,0.03,weatherlink.com 1.10,2013-09-21 02:00:00,
2013-09-20 22:15:00,77.3,74.0,29.93,NE,37,0.0,8.0,89,0.00,,,0.03,weatherlink.com 1.10,2013-09-21 02:15:00,
2013-09-20 22:32:00,77.5,73.0,29.93,ENE,78,11.0,16.0,86,0.02,,,0.05,weatherlink.com 1.10,2013-09-21 02:32:00,
2013-09-20 22:45:00,76.6,73.0,29.93,ENE,70,0.0,15.0,88,0.05,,,0.08,weatherlink.com 1.10,2013-09-21 02:45:00,
2013-09-20 23:00:00,75.7,72.0,29.93,SE,129,3.0,16.0,89,0.25,,,0.28,weatherlink.com 1.10,2013-09-21 03:00:00,
2013-09-20 23:15:00,75.7,73.0,29.92,ESE,115,0.0,0.0,91,0.30,,,0.33,weatherlink.com 1.10,2013-09-21 03:15:00,
2013-09-20 23:30:00,76.4,74.0,29.92,ENE,73,0.0,0.0,91,0.29,,,0.33,weatherlink.com 1.10,2013-09-21 03:30:00,
2013-09-20 23:45:00,76.7,74.0,29.91,ENE,73,0.0,0.0,91,0.29,,,0.37,weatherlink.com 1.10,2013-09-21 03:45:00,